createdAt,value
2023-04-26T00:00:16.086Z,28.38
2023-04-26T00:01:16.062Z,28.40
2023-04-26T00:02:16.107Z,28.41
2023-04-26T00:03:16.193Z,28.39
2023-04-26T00:04:16.310Z,28.42
2023-04-26T00:05:16.214Z,28.43
2023-04-26T00:06:16.020Z,28.40
2023-04-26T00:07:16.025Z,28.44
2023-04-26T00:08:16.045Z,28.42
2023-04-26T00:09:16.018Z,28.41
2023-04-26T00:10:16.025Z,28.42
2023-04-26T00:11:16.007Z,28.43
2023-04-26T00:12:16.005Z,28.45
2023-04-26T00:13:15.988Z,28.43
2023-04-26T00:14:15.979Z,28.45
2023-04-26T00:15:15.976Z,28.45
2023-04-26T00:16:15.981Z,28.44
2023-04-26T00:17:15.983Z,28.47
2023-04-26T00:18:16.007Z,28.46
2023-04-26T00:19:15.924Z,28.45
2023-04-26T00:20:15.940Z,28.45
2023-04-26T00:21:15.950Z,28.50
2023-04-26T00:22:15.909Z,28.46
2023-04-26T00:23:15.911Z,28.46
2023-04-26T00:24:16.020Z,28.46
2023-04-26T00:25:15.906Z,28.46
2023-04-26T00:26:15.905Z,28.45
2023-04-26T00:27:15.852Z,28.46
2023-04-26T00:28:15.855Z,28.46
2023-04-26T00:29:15.879Z,28.47
2023-04-26T00:30:15.878Z,28.47
2023-04-26T00:31:15.897Z,28.45
2023-04-26T00:32:15.854Z,28.49
2023-04-26T00:33:15.854Z,28.49
2023-04-26T00:34:15.833Z,28.49
2023-04-26T00:35:15.809Z,28.48
2023-04-26T00:36:15.850Z,28.49
2023-04-26T00:37:15.829Z,28.47
2023-04-26T00:38:15.834Z,28.49
2023-04-26T00:39:15.807Z,28.50
2023-04-26T00:40:15.806Z,28.52
2023-04-26T00:41:15.812Z,28.52
2023-04-26T00:42:15.789Z,28.50
2023-04-26T00:43:15.760Z,28.52
2023-04-26T00:44:15.837Z,28.53
2023-04-26T00:45:15.763Z,28.53
2023-04-26T00:46:15.831Z,28.51
2023-04-26T00:47:15.740Z,28.52
2023-04-26T00:48:15.739Z,28.53
2023-04-26T00:49:15.744Z,28.51
2023-04-26T00:50:15.768Z,28.51
2023-04-26T00:51:15.718Z,28.53
2023-04-26T00:52:15.698Z,28.54
2023-04-26T00:53:15.717Z,28.52
2023-04-26T00:54:15.723Z,28.53
2023-04-26T00:55:15.699Z,28.51
2023-04-26T00:56:15.702Z,28.51
2023-04-26T00:57:15.648Z,28.53
2023-04-26T00:58:15.677Z,28.53
2023-04-26T00:59:15.696Z,28.56
2023-04-26T01:00:15.634Z,28.56
2023-04-26T01:01:15.738Z,28.54
2023-04-26T01:02:15.738Z,28.57
2023-04-26T01:03:15.789Z,28.58
2023-04-26T01:04:15.863Z,28.60
2023-04-26T01:05:15.698Z,28.55
2023-04-26T01:06:15.807Z,28.59
2023-04-26T01:07:15.737Z,28.55
2023-04-26T01:08:15.722Z,28.59
2023-04-26T01:09:16.265Z,28.58
2023-04-26T01:10:15.790Z,28.56
2023-04-26T01:11:15.741Z,28.58
2023-04-26T01:12:15.818Z,28.56
2023-04-26T01:13:15.806Z,28.56
2023-04-26T01:14:15.830Z,28.57
2023-04-26T01:15:15.822Z,28.58
2023-04-26T01:16:15.909Z,28.60
2023-04-26T01:17:15.884Z,28.58
2023-04-26T01:18:15.865Z,28.58
2023-04-26T01:19:15.870Z,28.59
2023-04-26T01:20:23.408Z,28.56
2023-04-26T01:21:15.872Z,28.61
2023-04-26T01:22:15.888Z,28.57
2023-04-26T01:23:15.882Z,28.61
2023-04-26T01:24:15.838Z,28.60
2023-04-26T01:25:15.830Z,28.59
2023-04-26T01:26:15.881Z,28.60
2023-04-26T01:27:15.843Z,28.63
2023-04-26T01:28:15.816Z,28.60
2023-04-26T01:29:15.820Z,28.60
2023-04-26T01:30:15.818Z,28.61
2023-04-26T01:31:15.997Z,28.60
2023-04-26T01:32:15.825Z,28.62
2023-04-26T01:33:15.772Z,28.62
2023-04-26T01:34:15.808Z,28.61
2023-04-26T01:35:15.771Z,28.60
2023-04-26T01:36:15.773Z,28.63
2023-04-26T01:37:15.759Z,28.63
2023-04-26T01:38:15.781Z,28.64
2023-04-26T01:39:15.759Z,28.64
2023-04-26T01:40:15.739Z,28.63
2023-04-26T01:41:15.714Z,28.64
2023-04-26T01:42:15.730Z,28.64
2023-04-26T01:43:15.722Z,28.65
2023-04-26T01:44:15.719Z,28.66
2023-04-26T01:45:15.690Z,28.65
2023-04-26T01:46:15.736Z,28.64
2023-04-26T01:47:15.700Z,28.67
2023-04-26T01:48:15.654Z,28.68
2023-04-26T01:49:15.687Z,28.66
2023-04-26T01:50:15.696Z,28.66
2023-04-26T01:51:15.668Z,28.64
2023-04-26T01:52:15.674Z,28.67
2023-04-26T01:53:15.682Z,28.67
2023-04-26T01:54:15.681Z,28.69
2023-04-26T01:55:15.643Z,28.65
2023-04-26T01:56:15.618Z,28.67
2023-04-26T01:57:15.803Z,28.68
2023-04-26T01:58:15.651Z,28.66
2023-04-26T01:59:15.654Z,28.67
2023-04-26T02:00:15.663Z,28.68
2023-04-26T02:01:15.718Z,28.68
2023-04-26T02:02:15.703Z,28.69
2023-04-26T02:03:15.804Z,28.68
2023-04-26T02:04:15.764Z,28.69
2023-04-26T02:05:15.851Z,28.71
2023-04-26T02:06:15.758Z,28.71
2023-04-26T02:07:15.731Z,28.68
2023-04-26T02:08:15.721Z,28.70
2023-04-26T02:09:15.788Z,28.70
2023-04-26T02:10:15.747Z,28.70
2023-04-26T02:11:15.805Z,28.74
2023-04-26T02:12:15.802Z,28.73
2023-04-26T02:13:15.814Z,28.71
2023-04-26T02:14:15.873Z,28.70
2023-04-26T02:15:15.838Z,28.70
2023-04-26T02:16:15.889Z,28.69
2023-04-26T02:17:15.875Z,28.72
2023-04-26T02:18:15.875Z,28.75
2023-04-26T02:19:15.894Z,28.72
2023-04-26T02:20:15.967Z,28.73
2023-04-26T02:21:15.985Z,28.74
2023-04-26T02:22:15.946Z,28.72
2023-04-26T02:23:15.985Z,28.75
2023-04-26T02:24:16.041Z,28.74
2023-04-26T02:25:16.046Z,28.74
2023-04-26T02:26:16.060Z,28.73
2023-04-26T02:27:16.060Z,28.74
2023-04-26T02:28:16.156Z,28.74
2023-04-26T02:29:16.140Z,28.76
2023-04-26T02:30:16.133Z,28.76
2023-04-26T02:31:16.184Z,28.75
2023-04-26T02:32:16.186Z,28.76
2023-04-26T02:33:16.264Z,28.76
2023-04-26T02:34:16.223Z,28.77
2023-04-26T02:35:16.255Z,28.76
2023-04-26T02:36:16.273Z,28.76
2023-04-26T02:37:16.291Z,28.77
2023-04-26T02:38:16.338Z,28.77
2023-04-26T02:39:16.353Z,28.77
2023-04-26T02:40:16.357Z,28.78
2023-04-26T02:41:16.426Z,28.77
2023-04-26T02:42:16.412Z,28.76
2023-04-26T02:43:16.430Z,28.78
2023-04-26T02:44:16.423Z,28.77
2023-04-26T02:45:16.498Z,28.77
2023-04-26T02:46:17.397Z,28.78
2023-04-26T02:47:16.496Z,28.77
2023-04-26T02:48:16.564Z,28.78
2023-04-26T02:49:16.574Z,28.77
2023-04-26T02:50:16.575Z,28.79
2023-04-26T02:51:16.610Z,28.79
2023-04-26T02:52:16.624Z,28.78
2023-04-26T02:53:16.669Z,28.81
2023-04-26T02:54:16.711Z,28.80
2023-04-26T02:55:16.750Z,28.80
2023-04-26T02:56:16.847Z,28.81
2023-04-26T02:57:16.772Z,28.79
2023-04-26T02:58:16.774Z,28.82
2023-04-26T02:59:16.841Z,28.80
2023-04-26T03:00:16.895Z,28.82
2023-04-26T03:01:16.927Z,28.83
2023-04-26T03:02:17.013Z,28.83
2023-04-26T03:03:17.277Z,28.81
2023-04-26T03:04:17.107Z,28.80
2023-04-26T03:05:17.010Z,28.83
2023-04-26T03:06:17.021Z,28.82
2023-04-26T03:07:17.106Z,28.82
2023-04-26T03:08:17.101Z,28.84
2023-04-26T03:09:17.157Z,28.82
2023-04-26T03:10:17.156Z,28.87
2023-04-26T03:11:17.228Z,28.85
2023-04-26T03:12:17.177Z,28.86
2023-04-26T03:13:17.245Z,28.85
2023-04-26T03:14:17.268Z,28.85
2023-04-26T03:15:17.296Z,28.86
2023-04-26T03:16:17.395Z,28.84
2023-04-26T03:17:17.370Z,28.84
2023-04-26T03:18:17.384Z,28.85
2023-04-26T03:19:17.418Z,28.86
2023-04-26T03:20:17.446Z,28.84
2023-04-26T03:21:17.438Z,28.86
2023-04-26T03:22:17.509Z,28.89
2023-04-26T03:23:17.457Z,28.85
2023-04-26T03:24:17.513Z,28.86
2023-04-26T03:25:17.581Z,28.87
2023-04-26T03:26:17.587Z,28.87
2023-04-26T03:27:17.560Z,28.84
2023-04-26T03:28:17.649Z,28.88
2023-04-26T03:29:17.618Z,28.89
2023-04-26T03:30:17.684Z,28.88
2023-04-26T03:31:17.710Z,28.87
2023-04-26T03:32:18.068Z,28.89
2023-04-26T03:33:17.787Z,28.87
2023-04-26T03:34:17.833Z,28.88
2023-04-26T03:35:17.840Z,28.92
2023-04-26T03:36:17.849Z,28.88
2023-04-26T03:37:17.930Z,28.89
2023-04-26T03:38:17.885Z,28.89
2023-04-26T03:39:17.937Z,28.88
2023-04-26T03:40:17.984Z,28.90
2023-04-26T03:41:18.065Z,28.90
2023-04-26T03:42:18.062Z,28.88
2023-04-26T03:43:18.078Z,28.90
2023-04-26T03:44:18.104Z,28.89
2023-04-26T03:45:18.143Z,28.90
2023-04-26T03:46:18.199Z,28.88
2023-04-26T03:47:18.242Z,28.90
2023-04-26T03:48:18.256Z,28.90
2023-04-26T03:49:18.328Z,28.91
2023-04-26T03:50:18.337Z,28.90
2023-04-26T03:51:18.351Z,28.92
2023-04-26T03:52:18.390Z,28.92
2023-04-26T03:53:18.451Z,28.93
2023-04-26T03:54:18.459Z,28.92
2023-04-26T03:55:18.513Z,28.93
2023-04-26T03:56:18.495Z,28.93
2023-04-26T03:57:18.564Z,28.93
2023-04-26T03:58:18.602Z,28.90
2023-04-26T03:59:18.626Z,28.93
2023-04-26T04:00:18.641Z,28.92
2023-04-26T04:01:18.644Z,28.94
2023-04-26T04:02:18.862Z,28.93
2023-04-26T04:03:19.077Z,28.93
2023-04-26T04:04:19.180Z,28.96
2023-04-26T04:05:18.876Z,28.92
2023-04-26T04:06:18.881Z,28.88
2023-04-26T04:07:18.882Z,28.87
2023-04-26T04:08:19.015Z,28.82
2023-04-26T04:09:18.980Z,28.79
2023-04-26T04:10:19.013Z,28.76
2023-04-26T04:11:19.123Z,28.73
2023-04-26T04:12:19.131Z,28.67
2023-04-26T04:13:19.196Z,28.68
2023-04-26T04:14:19.226Z,28.64
2023-04-26T04:15:19.297Z,28.62
2023-04-26T04:16:19.371Z,28.63
2023-04-26T04:17:19.364Z,28.56
2023-04-26T04:18:19.409Z,28.54
2023-04-26T04:19:19.476Z,28.54
2023-04-26T04:20:19.549Z,28.49
2023-04-26T04:21:19.589Z,28.49
2023-04-26T04:22:19.618Z,28.46
2023-04-26T04:23:19.685Z,28.42
2023-04-26T04:24:19.772Z,28.43
2023-04-26T04:25:19.804Z,28.42
2023-04-26T04:26:19.842Z,28.37
2023-04-26T04:27:19.882Z,28.34
2023-04-26T04:28:19.938Z,28.34
2023-04-26T04:29:19.999Z,28.34
2023-04-26T04:30:20.112Z,28.28
2023-04-26T04:31:20.160Z,28.24
2023-04-26T04:32:20.197Z,28.23
2023-04-26T04:33:20.234Z,28.20
2023-04-26T04:34:20.296Z,28.22
2023-04-26T04:35:20.367Z,28.20
2023-04-26T04:36:20.401Z,28.20
2023-04-26T04:37:20.475Z,28.17
2023-04-26T04:38:20.522Z,28.21
2023-04-26T04:39:20.538Z,28.20
2023-04-26T04:40:20.654Z,28.20
2023-04-26T04:41:20.659Z,28.22
2023-04-26T04:42:20.760Z,28.21
2023-04-26T04:43:20.753Z,28.22
2023-04-26T04:44:20.823Z,28.22
2023-04-26T04:45:20.930Z,28.24
2023-04-26T04:46:20.973Z,28.24
2023-04-26T04:47:20.979Z,28.22
2023-04-26T04:48:21.059Z,28.24
2023-04-26T04:49:21.129Z,28.24
2023-04-26T04:50:21.210Z,28.24
2023-04-26T04:51:21.229Z,28.22
2023-04-26T04:52:21.238Z,28.21
2023-04-26T04:53:21.340Z,28.21
2023-04-26T04:54:21.398Z,28.22
2023-04-26T04:55:21.457Z,28.21
2023-04-26T04:56:21.449Z,28.22
2023-04-26T04:57:21.472Z,28.20
2023-04-26T04:58:21.575Z,28.20
2023-04-26T04:59:21.640Z,28.19
2023-04-26T05:00:21.653Z,28.16
2023-04-26T05:01:21.731Z,28.14
2023-04-26T05:02:21.809Z,28.01
2023-04-26T05:03:21.913Z,27.71
2023-04-26T05:04:21.944Z,27.30
2023-04-26T05:05:21.808Z,26.83
2023-04-26T05:06:21.836Z,26.25
2023-04-26T05:07:22.935Z,25.53
2023-04-26T05:08:21.931Z,25.24
2023-04-26T05:09:21.937Z,24.90
2023-04-26T05:10:21.968Z,24.42
2023-04-26T05:11:21.993Z,24.02
2023-04-26T05:12:22.042Z,23.55
2023-04-26T05:13:22.025Z,23.14
2023-04-26T05:14:22.045Z,22.87
2023-04-26T05:15:22.097Z,22.68
2023-04-26T05:16:22.228Z,22.66
2023-04-26T05:17:22.194Z,23.13
2023-04-26T05:18:22.227Z,23.73
2023-04-26T05:19:22.242Z,24.19
2023-04-26T05:20:22.248Z,24.62
2023-04-26T05:21:22.303Z,24.99
2023-04-26T05:22:22.354Z,25.27
2023-04-26T05:23:22.367Z,25.57
2023-04-26T05:24:22.371Z,25.73
2023-04-26T05:25:22.780Z,25.92
2023-04-26T05:26:22.434Z,26.03
2023-04-26T05:27:22.449Z,26.16
2023-04-26T05:28:22.445Z,26.08
2023-04-26T05:29:22.528Z,25.94
2023-04-26T05:30:22.571Z,25.15
2023-04-26T05:31:22.644Z,26.21
2023-04-26T05:32:22.577Z,26.45
2023-04-26T05:33:22.641Z,26.59
2023-04-26T05:34:22.648Z,26.52
2023-04-26T05:35:22.681Z,26.73
2023-04-26T05:36:22.766Z,27.03
2023-04-26T05:37:22.899Z,27.25
2023-04-26T05:38:22.830Z,27.48
2023-04-26T05:39:22.833Z,27.50
2023-04-26T05:40:22.825Z,28.18
2023-04-26T05:41:22.841Z,28.36
2023-04-26T05:42:22.894Z,28.44
2023-04-26T05:43:22.955Z,28.56
2023-04-26T05:44:22.980Z,29.18
2023-04-26T05:45:23.079Z,28.91
2023-04-26T05:46:23.203Z,29.24
2023-04-26T05:47:23.126Z,29.54
2023-04-26T05:48:23.206Z,29.61
2023-04-26T05:49:23.295Z,29.91
2023-04-26T05:50:23.315Z,29.98
2023-04-26T05:51:23.321Z,30.06
2023-04-26T05:52:23.342Z,30.20
2023-04-26T05:53:23.400Z,30.17
2023-04-26T05:54:23.395Z,30.15
2023-04-26T05:55:23.386Z,30.11
2023-04-26T05:56:23.389Z,30.08
2023-04-26T05:57:23.436Z,30.17
2023-04-26T05:58:23.477Z,30.15
2023-04-26T05:59:23.524Z,30.05
2023-04-26T06:00:23.621Z,29.96
2023-04-26T06:01:23.581Z,29.90
2023-04-26T06:02:23.694Z,30.05
2023-04-26T06:03:23.793Z,30.15
2023-04-26T06:04:24.284Z,30.06
2023-04-26T06:05:23.811Z,30.12
2023-04-26T06:06:23.680Z,30.16
2023-04-26T06:07:24.160Z,30.04
2023-04-26T06:08:23.667Z,29.99
2023-04-26T06:09:23.641Z,30.00
2023-04-26T06:10:23.660Z,30.19
2023-04-26T06:11:23.621Z,30.06
2023-04-26T06:12:23.660Z,30.01
2023-04-26T06:13:24.098Z,30.13
2023-04-26T06:15:24.781Z,29.94
2023-04-26T06:16:23.748Z,29.90
2023-04-26T06:17:23.852Z,29.84
2023-04-26T06:18:24.163Z,29.81
2023-04-26T06:19:23.672Z,30.01
2023-04-26T06:20:23.670Z,29.90
2023-04-26T06:21:23.694Z,29.84
2023-04-26T06:22:23.659Z,29.77
2023-04-26T06:23:23.692Z,29.80
2023-04-26T06:24:23.763Z,29.73
2023-04-26T06:25:23.792Z,29.77
2023-04-26T06:26:23.872Z,29.72
2023-04-26T06:27:23.866Z,29.79
2023-04-26T06:28:23.903Z,29.85
2023-04-26T06:29:24.143Z,29.79
2023-04-26T06:30:24.004Z,29.75
2023-04-26T06:31:24.047Z,29.73
2023-04-26T06:32:24.053Z,29.82
2023-04-26T06:33:24.091Z,29.79
2023-04-26T06:34:24.116Z,29.96
2023-04-26T06:35:24.152Z,29.84
2023-04-26T06:36:24.645Z,29.29
2023-04-26T06:37:24.214Z,28.71
2023-04-26T06:38:24.313Z,28.33
2023-04-26T06:39:24.688Z,28.01
2023-04-26T06:40:24.314Z,27.68
2023-04-26T06:41:24.682Z,27.82
2023-04-26T06:42:24.452Z,27.84
2023-04-26T06:43:24.463Z,28.03
2023-04-26T06:44:24.448Z,28.26
2023-04-26T06:45:24.461Z,28.52
2023-04-26T06:46:24.580Z,28.57
2023-04-26T06:47:24.569Z,28.71
2023-04-26T06:48:24.470Z,28.98
2023-04-26T06:49:24.530Z,28.87
2023-04-26T06:50:24.652Z,28.99
2023-04-26T06:51:24.664Z,29.00
2023-04-26T06:52:24.763Z,28.98
2023-04-26T06:53:24.741Z,29.00
2023-04-26T06:54:24.771Z,28.97
2023-04-26T06:55:24.781Z,28.99
2023-04-26T06:56:24.864Z,28.98
2023-04-26T06:57:24.935Z,29.05
2023-04-26T06:58:25.333Z,29.13
2023-04-26T06:59:24.830Z,29.02
2023-04-26T07:00:24.827Z,28.96
2023-04-26T07:01:24.886Z,28.92
2023-04-26T07:02:25.084Z,28.93
2023-04-26T07:03:25.287Z,28.89
2023-04-26T07:04:25.297Z,28.84
2023-04-26T07:05:25.107Z,28.83
2023-04-26T07:06:25.085Z,28.86
2023-04-26T07:07:25.171Z,28.85
2023-04-26T07:08:25.700Z,28.82
2023-04-26T07:09:25.232Z,28.88
2023-04-26T07:10:25.292Z,28.83
2023-04-26T07:11:26.326Z,28.73
2023-04-26T07:12:25.349Z,28.84
2023-04-26T07:13:25.401Z,28.92
2023-04-26T07:14:25.527Z,28.90
2023-04-26T07:15:25.490Z,28.86
2023-04-26T07:16:25.451Z,28.88
2023-04-26T07:17:25.444Z,28.83
2023-04-26T07:18:25.477Z,28.86
2023-04-26T07:19:25.512Z,28.81
2023-04-26T07:20:25.559Z,28.79
2023-04-26T07:21:25.517Z,28.83
2023-04-26T07:22:25.533Z,28.79
2023-04-26T07:23:25.585Z,28.72
2023-04-26T07:24:25.561Z,28.78
2023-04-26T07:25:25.589Z,28.84
2023-04-26T07:26:25.645Z,28.77
2023-04-26T07:27:25.632Z,29.28
2023-04-26T07:28:25.716Z,28.86
2023-04-26T07:29:25.755Z,28.75
2023-04-26T07:30:26.326Z,28.63
2023-04-26T07:31:25.739Z,28.63
2023-04-26T07:32:26.313Z,28.73
2023-04-26T07:33:26.370Z,28.88
2023-04-26T07:34:25.787Z,28.53
2023-04-26T07:35:25.762Z,28.59
2023-04-26T07:36:26.198Z,28.40
2023-04-26T07:37:26.203Z,27.16
2023-04-26T07:38:25.802Z,27.57
2023-04-26T07:39:25.903Z,28.17
2023-04-26T07:40:25.869Z,28.13
2023-04-26T07:41:25.906Z,28.35
2023-04-26T07:42:25.943Z,28.24
2023-04-26T07:43:25.960Z,28.34
2023-04-26T07:44:26.179Z,28.37
2023-04-26T07:45:26.085Z,28.37
2023-04-26T07:46:26.237Z,28.56
2023-04-26T07:47:26.023Z,28.60
2023-04-26T07:48:26.006Z,28.50
2023-04-26T07:49:26.077Z,28.68
2023-04-26T07:50:26.101Z,28.77
2023-04-26T07:51:26.033Z,28.48
2023-04-26T07:52:26.107Z,28.47
2023-04-26T07:53:26.047Z,28.50
2023-04-26T07:54:26.205Z,28.42
2023-04-26T07:55:26.124Z,28.30
2023-04-26T07:56:26.158Z,28.16
2023-04-26T07:57:26.108Z,28.21
2023-04-26T07:58:26.078Z,28.18
2023-04-26T07:59:26.235Z,28.21
2023-04-26T08:00:26.074Z,28.16
2023-04-26T08:01:26.082Z,28.18
2023-04-26T08:02:41.046Z,28.18
2023-04-26T08:03:27.250Z,28.13
2023-04-26T08:04:26.119Z,28.14
2023-04-26T08:05:26.171Z,28.15
2023-04-26T08:06:26.148Z,28.09
2023-04-26T08:07:26.032Z,28.10
2023-04-26T08:08:26.038Z,28.08
2023-04-26T08:09:26.025Z,28.07
2023-04-26T08:10:26.006Z,28.11
2023-04-26T08:11:26.054Z,28.22
2023-04-26T08:12:26.057Z,28.10
2023-04-26T08:13:29.149Z,28.23
2023-04-26T08:14:25.985Z,28.03
2023-04-26T08:15:25.998Z,27.92
2023-04-26T08:16:25.994Z,27.78
2023-04-26T08:17:25.973Z,27.80
2023-04-26T08:18:25.957Z,27.79
2023-04-26T08:19:25.913Z,27.63
2023-04-26T08:20:25.966Z,27.75
2023-04-26T08:21:25.986Z,27.79
2023-04-26T08:22:25.909Z,27.67
2023-04-26T08:23:26.002Z,27.80
2023-04-26T08:24:25.908Z,27.73
2023-04-26T08:25:26.206Z,27.85
2023-04-26T08:26:26.204Z,27.88
2023-04-26T08:27:25.898Z,27.82
2023-04-26T08:28:25.908Z,27.82
2023-04-26T08:29:25.864Z,27.61
2023-04-26T08:30:25.926Z,27.51
2023-04-26T08:31:25.948Z,27.48
2023-04-26T08:32:25.932Z,27.33
2023-04-26T08:33:25.895Z,27.28
2023-04-26T08:34:25.926Z,27.28
2023-04-26T08:35:25.868Z,27.19
2023-04-26T08:36:25.860Z,27.10
2023-04-26T08:37:26.951Z,27.02
2023-04-26T08:38:25.873Z,26.88
2023-04-26T08:39:25.888Z,26.88
2023-04-26T08:40:25.826Z,26.78
2023-04-26T08:41:26.246Z,26.72
2023-04-26T08:42:25.755Z,26.49
2023-04-26T08:43:25.753Z,26.43
2023-04-26T08:44:25.831Z,26.41
2023-04-26T08:45:25.770Z,25.88
2023-04-26T08:46:26.246Z,25.97
2023-04-26T08:47:25.780Z,26.46
2023-04-26T08:48:25.743Z,26.61
2023-04-26T08:49:26.203Z,26.95
2023-04-26T08:50:25.709Z,27.59
2023-04-26T08:51:25.758Z,27.45
2023-04-26T08:52:25.735Z,27.61
2023-04-26T08:53:25.735Z,27.45
2023-04-26T08:54:25.793Z,27.49
2023-04-26T08:55:25.714Z,27.47
2023-04-26T08:56:25.738Z,27.58
2023-04-26T08:57:25.747Z,27.58
2023-04-26T08:58:25.818Z,27.62
2023-04-26T08:59:25.824Z,27.63
2023-04-26T09:00:25.868Z,27.59
2023-04-26T09:01:25.944Z,27.70
2023-04-26T09:02:26.155Z,27.69
2023-04-26T09:03:26.374Z,27.87
2023-04-26T09:04:26.215Z,27.78
2023-04-26T09:05:26.157Z,27.74
2023-04-26T09:06:26.186Z,27.77
2023-04-26T09:07:26.909Z,27.75
2023-04-26T09:08:26.251Z,27.85
2023-04-26T09:09:28.468Z,27.76
2023-04-26T09:10:26.740Z,27.84
2023-04-26T09:11:26.307Z,27.75
2023-04-26T09:12:26.302Z,27.74
2023-04-26T09:13:26.330Z,27.70
2023-04-26T09:14:26.337Z,27.68
2023-04-26T09:15:26.277Z,27.66
2023-04-26T09:16:26.373Z,27.65
2023-04-26T09:17:26.290Z,27.62
2023-04-26T09:18:26.269Z,27.61
2023-04-26T09:19:26.248Z,27.61
2023-04-26T09:20:26.339Z,27.62
2023-04-26T09:21:26.294Z,27.54
2023-04-26T09:22:26.209Z,27.55
2023-04-26T09:23:26.224Z,27.54
2023-04-26T09:24:26.194Z,27.49
2023-04-26T09:25:26.226Z,27.47
2023-04-26T09:26:26.204Z,27.52
2023-04-26T09:27:26.231Z,27.49
2023-04-26T09:28:26.212Z,27.45
2023-04-26T09:29:26.253Z,27.60
2023-04-26T09:30:26.175Z,27.70
2023-04-26T09:31:26.159Z,27.72
2023-04-26T09:32:26.144Z,27.72
2023-04-26T09:33:26.177Z,27.68
2023-04-26T09:34:26.270Z,27.40
2023-04-26T09:35:26.166Z,27.21
2023-04-26T09:36:26.111Z,26.83
2023-04-26T09:37:26.185Z,26.79
2023-04-26T09:38:26.146Z,26.64
2023-04-26T09:39:26.098Z,26.19
2023-04-26T09:40:26.106Z,26.55
2023-04-26T09:41:26.245Z,26.58
2023-04-26T09:42:26.147Z,26.54
2023-04-26T09:43:26.102Z,26.61
2023-04-26T09:44:26.065Z,26.55
2023-04-26T09:45:26.052Z,26.58
2023-04-26T09:46:26.144Z,26.57
2023-04-26T09:47:26.108Z,26.55
2023-04-26T09:48:26.246Z,26.51
2023-04-26T09:49:25.993Z,26.50
2023-04-26T09:50:26.068Z,26.54
2023-04-26T09:51:26.013Z,26.45
2023-04-26T09:52:26.018Z,26.39
2023-04-26T09:53:26.024Z,26.41
2023-04-26T09:54:26.077Z,26.47
2023-04-26T09:55:34.917Z,26.48
2023-04-26T09:56:26.985Z,26.34
2023-04-26T09:57:25.945Z,26.38
2023-04-26T09:58:25.953Z,26.27
2023-04-26T09:59:25.941Z,26.20
2023-04-26T10:00:25.972Z,26.18
2023-04-26T10:01:26.102Z,26.27
2023-04-26T10:02:26.139Z,26.09
2023-04-26T10:03:26.474Z,26.01
2023-04-26T10:04:26.001Z,26.03
2023-04-26T10:05:25.950Z,26.01
2023-04-26T10:06:25.991Z,26.03
2023-04-26T10:07:25.997Z,26.07
2023-04-26T10:08:25.920Z,25.97
2023-04-26T10:09:25.923Z,25.97
2023-04-26T10:10:25.895Z,25.93
2023-04-26T10:11:25.888Z,25.93
2023-04-26T10:12:25.927Z,25.91
2023-04-26T10:13:26.302Z,25.84
2023-04-26T10:14:25.938Z,25.73
2023-04-26T10:15:25.960Z,25.73
2023-04-26T10:16:26.024Z,25.74
2023-04-26T10:17:26.111Z,25.69
2023-04-26T10:18:26.162Z,25.85
2023-04-26T10:19:26.273Z,25.88
2023-04-26T10:20:26.281Z,25.83
2023-04-26T10:21:26.322Z,25.82
2023-04-26T10:22:26.326Z,25.80
2023-04-26T10:23:26.396Z,25.72
2023-04-26T10:24:26.851Z,25.66
2023-04-26T10:25:26.831Z,25.61
2023-04-26T10:26:26.812Z,25.74
2023-04-26T10:27:26.739Z,25.86
2023-04-26T10:28:26.776Z,25.85
2023-04-26T10:29:26.790Z,25.83
2023-04-26T10:30:27.686Z,24.42
2023-04-26T10:31:26.822Z,22.81
2023-04-26T10:32:26.808Z,22.90
2023-04-26T10:33:26.771Z,21.65
2023-04-26T10:34:26.656Z,22.22
2023-04-26T10:35:26.763Z,22.40
2023-04-26T10:36:26.722Z,21.81
2023-04-26T10:37:26.678Z,22.93
2023-04-26T10:38:26.792Z,23.13
2023-04-26T10:39:26.692Z,23.38
2023-04-26T10:40:26.622Z,23.62
2023-04-26T10:41:26.817Z,23.94
2023-04-26T10:42:27.248Z,23.91
2023-04-26T10:43:27.261Z,23.76
2023-04-26T10:44:26.795Z,23.28
2023-04-26T10:45:26.844Z,22.73
2023-04-26T10:46:26.895Z,22.56
2023-04-26T10:47:27.105Z,22.97
2023-04-26T10:48:27.275Z,23.66
2023-04-26T10:49:26.997Z,23.84
2023-04-26T10:50:27.010Z,24.09
2023-04-26T10:51:27.130Z,24.24
2023-04-26T10:52:27.292Z,24.18
2023-04-26T10:53:27.097Z,24.24
2023-04-26T10:54:27.095Z,24.30
2023-04-26T10:55:27.076Z,23.81
2023-04-26T10:56:27.134Z,23.71
2023-04-26T10:57:27.108Z,23.61
2023-04-26T10:58:27.136Z,23.82
2023-04-26T11:00:29.191Z,23.49
2023-04-26T11:01:27.240Z,23.74
2023-04-26T11:02:27.240Z,23.34
2023-04-26T11:03:27.261Z,22.55
2023-04-26T11:04:27.231Z,21.37
2023-04-26T11:05:27.180Z,22.22
2023-04-26T11:06:27.159Z,22.00
2023-04-26T11:07:27.134Z,22.47
2023-04-26T11:08:27.128Z,22.74
2023-04-26T11:09:27.138Z,21.83
2023-04-26T11:10:27.118Z,22.12
2023-04-26T11:11:27.294Z,21.10
2023-04-26T11:12:27.087Z,21.57
2023-04-26T11:13:27.076Z,21.08
2023-04-26T11:14:27.132Z,21.35
2023-04-26T11:15:27.110Z,21.15
2023-04-26T11:16:27.127Z,21.51
2023-04-26T11:17:27.057Z,22.16
2023-04-26T11:18:27.060Z,22.59
2023-04-26T11:19:27.033Z,22.30
2023-04-26T11:20:27.063Z,22.47
2023-04-26T11:21:27.054Z,22.40
2023-04-26T11:22:27.010Z,22.37
2023-04-26T11:23:27.025Z,22.16
2023-04-26T11:24:27.015Z,21.86
2023-04-26T11:25:27.061Z,21.64
2023-04-26T11:26:27.067Z,21.67
2023-04-26T11:27:26.991Z,21.61
2023-04-26T11:28:27.040Z,21.44
2023-04-26T11:29:27.039Z,21.30
2023-04-26T11:30:26.997Z,21.27
2023-04-26T11:31:27.136Z,21.10
2023-04-26T11:32:27.156Z,21.13
2023-04-26T11:33:27.148Z,20.96
2023-04-26T11:34:27.214Z,20.86
2023-04-26T11:35:27.228Z,20.87
2023-04-26T11:36:27.445Z,20.85
2023-04-26T11:37:27.295Z,20.65
2023-04-26T11:38:27.339Z,19.11
2023-04-26T11:39:27.358Z,19.82
2023-04-26T11:40:27.375Z,20.27
2023-04-26T11:41:27.424Z,20.08
2023-04-26T11:42:27.434Z,20.64
2023-04-26T11:43:27.390Z,20.84
2023-04-26T11:44:27.440Z,21.05
2023-04-26T11:45:27.492Z,21.22
2023-04-26T11:46:27.494Z,21.41
2023-04-26T11:47:27.564Z,21.34
2023-04-26T11:48:27.679Z,21.39
2023-04-26T11:49:27.711Z,21.46
2023-04-26T11:50:27.728Z,20.65
2023-04-26T11:51:28.092Z,20.98
2023-04-26T11:52:27.879Z,21.13
2023-04-26T11:53:27.872Z,20.76
2023-04-26T11:54:27.946Z,20.55
2023-04-26T11:55:27.933Z,20.73
2023-04-26T11:56:27.928Z,20.93
2023-04-26T11:57:27.975Z,21.21
2023-04-26T11:58:28.022Z,21.37
2023-04-26T11:59:28.047Z,21.48
2023-04-26T12:00:28.055Z,21.66
2023-04-26T12:01:28.078Z,21.70
2023-04-26T12:02:28.192Z,21.16
2023-04-26T12:03:28.376Z,20.89
2023-04-26T12:04:29.991Z,19.82
2023-04-26T12:05:28.374Z,20.05
2023-04-26T12:06:28.258Z,19.34
2023-04-26T12:07:28.251Z,19.89
2023-04-26T12:08:28.323Z,20.33
2023-04-26T12:09:28.322Z,21.00
2023-04-26T12:10:28.329Z,21.42
2023-04-26T12:11:28.274Z,21.87
2023-04-26T12:12:28.376Z,22.33
2023-04-26T12:13:28.408Z,22.48
2023-04-26T12:14:28.438Z,22.75
2023-04-26T12:15:28.528Z,22.78
2023-04-26T12:16:28.643Z,22.91
2023-04-26T12:17:28.913Z,22.82
2023-04-26T12:18:28.661Z,22.55
2023-04-26T12:19:28.705Z,22.67
2023-04-26T12:20:28.737Z,22.18
2023-04-26T12:21:30.734Z,22.32
2023-04-26T12:22:28.829Z,22.32
2023-04-26T12:23:28.838Z,22.30
2023-04-26T12:24:28.845Z,22.47
2023-04-26T12:25:28.868Z,22.38
2023-04-26T12:26:28.903Z,22.40
2023-04-26T12:27:28.895Z,22.20
2023-04-26T12:28:28.924Z,22.22
2023-04-26T12:29:28.980Z,22.22
2023-04-26T12:30:28.979Z,22.34
2023-04-26T12:31:29.061Z,22.15
2023-04-26T12:32:29.030Z,22.18
2023-04-26T12:33:29.076Z,22.22
2023-04-26T12:34:29.033Z,22.31
2023-04-26T12:35:29.040Z,22.29
2023-04-26T12:36:29.076Z,22.28
2023-04-26T12:37:29.095Z,22.33
2023-04-26T12:38:29.061Z,22.25
2023-04-26T12:39:29.092Z,22.36
2023-04-26T12:40:29.068Z,22.21
2023-04-26T12:41:29.119Z,22.39
2023-04-26T12:42:29.374Z,22.61
2023-04-26T12:43:29.176Z,22.40
2023-04-26T12:44:29.181Z,22.30
2023-04-26T12:45:29.201Z,22.25
2023-04-26T12:46:29.212Z,22.25
2023-04-26T12:47:29.207Z,22.14
2023-04-26T12:48:29.208Z,22.21
2023-04-26T12:49:29.209Z,22.22
2023-04-26T12:50:29.268Z,22.00
2023-04-26T12:51:29.227Z,22.08
2023-04-26T12:52:29.178Z,22.34
2023-04-26T12:53:29.230Z,22.08
2023-04-26T12:54:29.326Z,22.17